Flight Track Log - Related Links

Times and Time Zones

All times are in EDT time to prevent confusion due to time zone crossing. See the SWA3228 flight status page for this flight to view local times or setup timezone preferences in your user account.

Time Position Orientation Groundspeed Altitude Reporting Facility
EDT Latitude Longitude Course Direction KTS MPH feet Rate Location/Type
Wed 12:48:37 PM 41.7964 -87.5653 99° East 247 284 10,500  Level Chicago Center
Wed 12:49:39 PM 41.7844 -87.4161 96° East 329 379 14,800 2,177 Climbing Chicago Center
Wed 12:50:41 PM 41.7761 -87.2839 95° East 349 402 15,000 97 Climbing Chicago Center
Wed 12:51:43 PM 41.7678 -87.1564 95° East 348 400 15,000 1,403 Level Chicago Center
Wed 12:52:45 PM 41.7600 -87.0289 95° East 345 397 17,900 3,145 Climbing Chicago Center
Wed 12:53:47 PM 41.7628 -86.9058 88° East 337 388 21,500 3,581 Climbing Chicago Center
Wed 12:54:49 PM 41.7658 -86.7439 88° East 358 412 25,300 2,661 Climbing Chicago Center
Wed 12:55:51 PM 41.7644 -86.6231 91° East 378 435 27,000 823 Climbing Chicago Center
Wed 12:56:53 PM 41.7650 -86.4353 90° East 415 478 27,000  Level Chicago Center
Wed 12:57:55 PM 41.7694 -86.2806 88° East 416 479 27,000  Level Chicago Center
Wed 12:58:57 PM 41.7881 -86.1269 81° East 416 479 27,000  Level Chicago Center
Wed 12:59:59 PM 41.8064 -85.9722 81° East 419 482 27,000 677 Level Chicago Center
Wed 01:01:01 PM 41.8228 -85.8181 82° East 418 481 28,400 1,016 Climbing Chicago Center
Wed 01:02:03 PM 41.8397 -85.6606 82° East 422 486 29,100 1,839 Climbing Chicago Center
Wed 01:03:05 PM 41.8572 -85.5028 81° East 422 486 32,200 1,887 Climbing Chicago Center
Wed 01:04:07 PM 41.8731 -85.3494 82° East 414 476 33,000 387 Climbing Chicago Center
Wed 01:05:09 PM 41.8911 -85.1694 82° East 405 466 33,000  Level Chicago Center
Wed 01:06:10 PM 41.9067 -85.0206 82° East 402 463 33,000  Level Chicago Center
Wed 01:07:12 PM 41.9208 -84.8675 83° East 410 472 33,000 -97 Level Chicago Center
Wed 01:08:14 PM 41.9339 -84.7175 83° East 407 468 32,800 -484 Descending Chicago Center
Wed 01:09:16 PM 41.9489 -84.5625 83° East 417 480 32,000 -850 Descending Chicago Center
Wed 01:10:21 PM 41.9744 -84.3764 79° East 415 478 31,000 -480 Descending Cleveland Center
Wed 01:11:21 PM 41.9789 -84.2342 88° East 415 478 31,000  Level Cleveland Center
Wed 01:12:21 PM 41.9900 -84.0783 84° East 420 483 31,000  Level Cleveland Center
Wed 01:13:21 PM 42.0050 -83.9225 83° East 420 483 31,000 -800 Level Cleveland Center
Wed 01:14:21 PM 42.0200 -83.7639 83° East 425 489 29,400 -2,200 Descending Cleveland Center
Wed 01:15:21 PM 42.0325 -83.6136 84° East 415 478 26,600 -2,700 Descending Cleveland Center
Wed 01:16:21 PM 42.0450 -83.4464 84° East 404 465 24,000 -1,300 Descending Cleveland Center
Wed 01:17:21 PM 42.0319 -83.3061 97° East 392 451 24,000  Level Cleveland Center
Wed 01:18:21 PM 42.0183 -83.1714 98° East 387 445 24,000  Level Cleveland Center
Wed 01:19:21 PM 42.0028 -83.0281 98° East 392 451 24,000 -1,000 Level Cleveland Center
Wed 01:20:21 PM 41.9908 -82.8936 97° East 387 445 22,000 -2,325 Descending Cleveland Center
Wed 01:20:41 PM 41.9878 -82.8375 94° East 369 425 20,900 -2,000 Descending Cleveland Center
Wed 01:21:21 PM 41.9767 -82.7617 101° East 369 425 20,000 -1,545 Descending Cleveland Center
Wed 01:21:47 PM 41.9697 -82.6889 97° East 353 406 19,200 -1,600 Descending Cleveland Center
Wed 01:22:21 PM 41.9647 -82.6300 96° East 357 411 18,400 -2,164 Descending Cleveland Center
Wed 01:22:48 PM 41.9553 -82.5656 101° East 343 395 17,000 -2,300 Descending Cleveland Center
Wed 01:23:21 PM 41.9458 -82.5094 103° East 344 396 16,100 -2,400 Descending Cleveland Center
Wed 01:23:48 PM 41.9239 -82.4475 115° Southeast 338 389 14,600 -2,300 Descending Cleveland Center
Wed 01:24:21 PM 41.9081 -82.3939 112° Southeast 338 389 13,800 -2,149 Descending Cleveland Center
Wed 01:24:55 PM 41.8842 -82.3208 114° Southeast 333 383 12,200 -2,300 Descending Cleveland Center
Wed 01:25:21 PM 41.8722 -82.2814 112° Southeast 333 383 11,500 -2,066 Descending Cleveland Center
Wed 01:25:56 PM 41.8483 -82.2083 114° Southeast 330 380 10,100 -1,500 Descending Cleveland Center
Wed 01:26:21 PM 41.8364 -82.1689 112° Southeast 328 377 10,000 -109 Descending Cleveland Center
Wed 01:26:51 PM 41.7953 -82.1289 144° Southeast 322 371 10,000  Level Cleveland Center
Wed 01:27:21 PM 41.7622 -82.1003 147° Southeast 315 362 10,000  Level Cleveland Center
Wed 01:27:51 PM 41.7211 -82.0686 150° Southeast 313 360 10,000  Level Cleveland Center
Wed 01:28:21 PM 41.6900 -82.0431 148° Southeast 308 354 10,000 -896 Level Cleveland Center
Wed 01:28:58 PM 41.6406 -82.0086 152° Southeast 282 325 9,000 -1,500 Descending Cleveland Center
Wed 01:29:21 PM 41.6200 -81.9886 144° Southeast 290 334 8,500 -984 Descending Cleveland Center
Wed 01:29:59 PM 41.5722 -81.9542 152° Southeast 276 318 8,000 -600 Descending Cleveland Center
Wed 01:30:21 PM 41.5558 -81.9400 147° Southeast 278 320 7,900 -250 Descending Cleveland Center
Wed 01:30:47 PM 41.5206 -81.9172 154° Southeast 262 302 7,800 -345 Descending Cleveland Center
Wed 01:31:48 PM 41.4517 -81.9322 189° South 288 331 7,400 -541 Descending Cleveland Center
Wed 01:32:49 PM 41.4069 -82.0061 231° Southwest 252 290 6,700 -689 Descending Cleveland Center
Wed 01:33:50 PM 41.3686 -82.0744 233° Southwest 228 262 6,000 -992 Descending Cleveland Center
Wed 01:34:56 PM 41.3167 -82.0733 179° South 202 232 4,600 -1,087 Descending Cleveland Center
Wed 01:35:57 PM 41.3194 -82.0069 87° East 180 207 3,700 -1,082 Descending Cleveland Center
Wed 01:36:58 PM 41.3472 -81.9606 51° Northeast 155 178 2,400 -1,043 Descending Cleveland Center
Wed 01:37:52 PM 41.3683 -81.9222 54° Northeast 140 161 1,700 -730 Descending Cleveland Center
Wed 01:38:53 PM 41.3939 -81.8814 50° Northeast 139 160 1,000 -689 Descending Cleveland Center
Wed 01:40:00 PM 41.4000 -81.8500 78° East  Level FlightAware Approximate

Login

Don't have an account? Register now (free) for customized features, flight alerts, and more!